Vina, CA (96092)

1:11 AM PST on December 18, 2014 (GMT -0800)
E and C | Change Station
CLOSE
Current Station
Personal Weather Station
Location: Chico, CA
Elevation: 157 ft
Nearby Weather Stations

Elev 157 ft 39.81 °N, 121.96 °W | Updated 11 minutes ago

Overcast
Overcast
48.7 °F
Feels Like 49 °F
N
1.0
Wind Variable Wind from SE
Gusts 3.0 mph

Today
High -- | Low -- °F
--% Chance of Precip.
Yesterday
High -- | Low -- °F
Precip. -- in
7:24 AM 4:44 PM
Waning Crescent, 16% visible
Pressure 30.11 in
Visibility 10.0 miles
Clouds Scattered Clouds 700 ft
Mostly Cloudy 3300 ft
Overcast 4700 ft
Windchill 49 °F
Dew Point 47 °F
Humidity 95%
Rainfall 0.00 in
Snow Depth Not available.
UV 0 out of 12
Pollen .50 out of 12
Air Quality Not available.
Flu Activity Not available.
METAR KRBL 180854Z AUTO 15008KT 10SM SCT007 BKN033 OVC047 09/08 A3011 RMK AO2 SLP195 60004 T00940083 53004

More Conditions Fewer Conditions

Pressure 30.11 in
Visibility 10.0 miles
Clouds Scattered Clouds 700 ft
Mostly Cloudy 3300 ft
Overcast 4700 ft
Windchill 49 °F
Dew Point 47 °F
Humidity 95%
Rainfall 0.00 in
Snow Depth Not available.
UV 0 out of 12
Pollen .50 out of 12
Air Quality Not available.
Flu Activity Not available.
METAR KRBL 180854Z AUTO 15008KT 10SM SCT007 BKN033 OVC047 09/08 A3011 RMK AO2 SLP195 60004 T00940083 53004

More Conditions Fewer Conditions

10-Day Weather Forecast

Almanac

Astronomy

Dec. 18, 2014 Rise Set
Actual Time
Civil Twilight
Nautical Twilight
Astronomical Twilight
Moon
Length of Visible Light
Length of Day
Tomorrow will be .
, % of the Moon is Illuminated

Today's Extremes

State Highs State Lows

Community

WunderPhotos

Upload Photos

1,778,907 photos uploaded!

WunderBlogs® & News

Nearby

Air Quality

  Air Quality AQ Index Pollutant
Not available.

Snow Depth

Station Depth Elevation

Earthquake Activity

City Distance Mag. Time & Date
Minimum magnitude displayed is 2.5.

Coastal Water Temperatures

Place Temperature

Nearby Weather Stations